Time;durP1;ratioP1;P1;durP2;ratioP2;P2;SDS_P1;SDS_P2;PMS_P1;PMS_P2;Temp;Humidity;BMP_temperature;BMP_pressure;BME280_temperature;BME280_humidity;BME280_pressure;Samples;Min_cycle;Max_cycle;Signal;HPM_P1;HPM_P2
2021/06/04 00:00:21;;;;;;;4.25;2.35;;;19.30;70.80;;;;;;5023218;28;20501;-55
2021/06/04 00:02:48;;;;;;;5.38;2.55;;;19.30;71.10;;;;;;5024823;28;20547;-54
2021/06/04 00:05:15;;;;;;;2.72;2.15;;;19.30;71.10;;;;;;5018707;28;20029;-53
2021/06/04 00:07:41;;;;;;;4.25;2.75;;;19.30;71.10;;;;;;5024576;28;20120;-55
2021/06/04 00:10:15;;;;;;;3.08;2.28;;;19.30;71.10;;;;;;5025482;28;20108;-56
2021/06/04 00:12:41;;;;;;;1.83;1.63;;;19.30;71.30;;;;;;5016600;28;20063;-55
2021/06/04 00:15:16;;;;;;;2.08;1.88;;;19.30;71.70;;;;;;5016958;28;20030;-53
2021/06/04 00:20:20;;;;;;;2.97;2.35;;;19.30;72.20;;;;;;5023800;28;20046;-53
2021/06/04 00:22:46;;;;;;;2.70;2.05;;;19.20;73.40;;;;;;5007576;28;20030;-54
2021/06/04 00:25:12;;;;;;;2.63;2.42;;;19.20;72.80;;;;;;5025542;28;20090;-53
2021/06/04 00:27:37;;;;;;;2.47;2.28;;;19.20;73.10;;;;;;5026273;28;20061;-55
2021/06/04 00:30:05;;;;;;;2.65;2.45;;;19.10;73.70;;;;;;5005514;28;20065;-54
2021/06/04 00:32:31;;;;;;;2.80;2.35;;;19.10;74.00;;;;;;5025698;28;20120;-53
2021/06/04 00:34:56;;;;;;;3.15;2.22;;;19.10;73.90;;;;;;5022958;28;20108;-56
2021/06/04 00:37:22;;;;;;;3.03;2.72;;;19.10;73.50;;;;;;5022049;28;20021;-54
2021/06/04 00:39:48;;;;;;;7.22;2.95;;;19.10;74.00;;;;;;5023379;28;20068;-53
2021/06/04 00:42:14;;;;;;;3.42;2.92;;;19.10;74.20;;;;;;5022089;28;20029;-53
2021/06/04 00:44:39;;;;;;;4.38;2.50;;;19.10;74.10;;;;;;5026776;28;20466;-55
2021/06/04 00:47:06;;;;;;;4.38;2.92;;;19.10;74.10;;;;;;5023499;28;20076;-53
2021/06/04 00:49:32;;;;;;;3.15;2.65;;;19.00;74.80;;;;;;5005014;28;20287;-55
2021/06/04 00:52:24;;;;;;;3.13;2.78;;;19.10;75.00;;;;;;5024806;28;20042;-54
2021/06/04 00:54:51;;;;;;;3.05;2.65;;;19.10;74.50;;;;;;5021433;28;20121;-55
2021/06/04 00:57:17;;;;;;;3.38;2.97;;;19.10;74.50;;;;;;5023569;28;20026;-51
2021/06/04 00:59:44;;;;;;;3.03;2.72;;;19.00;74.30;;;;;;5024222;28;20458;-53
2021/06/04 01:02:13;;;;;;;4.82;3.10;;;19.10;74.70;;;;;;5025269;28;20057;-56
2021/06/04 01:04:39;;;;;;;4.47;3.15;;;19.10;74.50;;;;;;5024169;28;20021;-54
2021/06/04 01:07:27;;;;;;;4.07;2.70;;;19.00;74.60;;;;;;5024996;28;20048;-53
2021/06/04 01:10:17;;;;;;;5.15;2.85;;;19.10;74.60;;;;;;5023665;28;20025;-56
2021/06/04 01:13:11;;;;;;;3.38;3.05;;;19.10;74.70;;;;;;5019680;28;20029;-56
2021/06/04 01:15:52;;;;;;;3.80;2.40;;;19.00;73.80;;;;;;5020386;28;20022;-56
2021/06/04 01:18:33;;;;;;;3.58;2.65;;;18.90;74.20;;;;;;5024689;28;20034;-56
2021/06/04 01:21:05;;;;;;;1.80;1.70;;;18.80;73.70;;;;;;5024909;28;20108;-55
2021/06/04 01:23:52;;;;;;;4.20;2.22;;;18.70;73.80;;;;;;5024107;28;20029;-55
2021/06/04 01:26:33;;;;;;;2.55;2.35;;;18.70;73.70;;;;;;5019109;28;20116;-55
2021/06/04 01:29:08;;;;;;;2.88;2.67;;;18.80;73.20;;;;;;5019893;28;20474;-56
2021/06/04 01:31:49;;;;;;;5.10;2.67;;;18.80;73.10;;;;;;5024111;28;20267;-54
2021/06/04 01:34:27;;;;;;;5.35;2.28;;;18.80;73.10;;;;;;5025738;28;20033;-54
2021/06/04 01:36:59;;;;;;;1.55;1.45;;;18.90;73.40;;;;;;5029342;28;20048;-56
2021/06/04 01:39:41;;;;;;;2.78;1.90;;;18.90;73.00;;;;;;5026675;28;20100;-56
2021/06/04 01:42:10;;;;;;;4.00;2.40;;;19.00;73.00;;;;;;5025918;28;20033;-54
2021/06/04 01:44:48;;;;;;;4.10;2.58;;;19.00;73.00;;;;;;5027492;28;20018;-55
2021/06/04 01:47:18;;;;;;;3.72;3.35;;;19.00;73.80;;;;;;5024610;28;20060;-53
2021/06/04 01:49:48;;;;;;;2.50;2.28;;;19.00;73.20;;;;;;5025222;28;20051;-54
2021/06/04 01:52:22;;;;;;;3.85;2.25;;;18.90;73.20;;;;;;5029709;28;20028;-53
2021/06/04 01:54:59;;;;;;;3.60;2.83;;;18.90;72.50;;;;;;5026701;28;20155;-56
2021/06/04 01:57:29;;;;;;;6.18;2.15;;;18.90;72.50;;;;;;5022736;28;20521;-54
2021/06/04 01:59:55;;;;;;;4.47;2.55;;;18.90;72.90;;;;;;5022323;28;20026;-53
2021/06/04 02:02:23;;;;;;;5.00;2.80;;;18.90;73.40;;;;;;5023720;28;20040;-54
2021/06/04 02:04:53;;;;;;;5.57;3.28;;;18.90;73.50;;;;;;5025819;28;20033;-53
2021/06/04 02:07:23;;;;;;;3.10;2.47;;;18.90;74.00;;;;;;5029670;28;20079;-56
2021/06/04 02:09:49;;;;;;;5.07;3.63;;;18.80;74.20;;;;;;5027951;28;20359;-54
2021/06/04 02:12:15;;;;;;;11.35;4.15;;;18.90;74.60;;;;;;5017385;28;20498;-55
2021/06/04 02:14:47;;;;;;;7.20;6.28;;;18.90;74.30;;;;;;5024342;28;20045;-53
2021/06/04 02:17:40;;;;;;;8.65;6.13;;;18.90;74.10;;;;;;5027628;28;20021;-52
2021/06/04 02:20:47;;;;;;;2.72;2.45;;;18.90;73.70;;;;;;5025160;28;20116;-50
2021/06/04 02:23:23;;;;;;;6.22;4.40;;;18.90;73.40;;;;;;5006820;28;20037;-53
2021/06/04 02:25:54;;;;;;;;;;;18.90;73.20;;;;;;5011127;28;20389;-49
2021/06/04 02:28:51;;;;;;;2.83;2.50;;;18.80;73.00;;;;;;5018913;28;20364;-53
2021/06/04 02:31:29;;;;;;;4.13;3.15;;;18.80;72.80;;;;;;5027757;28;20033;-53
2021/06/04 02:34:21;;;;;;;2.80;2.60;;;18.80;72.60;;;;;;5009461;28;20494;-50
2021/06/04 02:37:11;;;;;;;2.65;2.45;;;18.80;72.70;;;;;;5022141;28;20133;-55
2021/06/04 02:39:59;;;;;;;2.97;2.47;;;18.80;73.30;;;;;;5019548;28;20100;-54
2021/06/04 02:42:32;;;;;;;3.97;3.42;;;18.80;73.20;;;;;;5010480;28;20032;-51
2021/06/04 02:45:17;;;;;;;3.30;2.47;;;18.80;73.60;;;;;;5024752;28;20099;-49
2021/06/04 02:47:47;;;;;;;3.22;2.60;;;18.80;73.70;;;;;;5028724;28;20059;-55
2021/06/04 02:50:36;;;;;;;4.18;3.83;;;18.80;73.60;;;;;;5024905;28;20022;-55
2021/06/04 02:53:26;;;;;;;4.93;3.42;;;18.80;73.60;;;;;;5026660;28;20391;-49
2021/06/04 02:56:17;;;;;;;4.28;3.70;;;18.80;73.60;;;;;;5026700;28;20025;-54
2021/06/04 02:58:49;;;;;;;4.18;3.70;;;18.70;73.10;;;;;;5024874;28;20074;-56
2021/06/04 03:01:15;;;;;;;7.32;4.18;;;18.60;73.40;;;;;;5008450;28;20025;-56
2021/06/04 03:03:42;;;;;;;6.82;2.75;;;18.60;73.70;;;;;;5026280;28;20026;-54
2021/06/04 03:06:08;;;;;;;3.40;2.97;;;18.50;74.10;;;;;;5027314;28;20091;-56
2021/06/04 03:08:35;;;;;;;3.55;2.47;;;18.40;74.40;;;;;;5018253;28;20033;-56
2021/06/04 03:11:05;;;;;;;2.88;2.67;;;18.40;74.20;;;;;;5025730;28;20056;-55
2021/06/04 03:13:31;;;;;;;3.80;2.90;;;18.40;74.30;;;;;;5009703;28;20088;-52
2021/06/04 03:16:08;;;;;;;3.15;2.70;;;18.40;74.30;;;;;;5005932;28;20034;-56
2021/06/04 03:18:44;;;;;;;3.10;2.83;;;18.50;74.50;;;;;;5024295;28;20032;-54
2021/06/04 03:21:31;;;;;;;4.38;3.28;;;18.50;74.00;;;;;;5027228;28;20224;-53
2021/06/04 03:23:58;;;;;;;3.67;2.83;;;18.50;74.10;;;;;;5026308;28;20113;-53
2021/06/04 03:26:28;;;;;;;2.85;2.65;;;18.50;73.80;;;;;;5024617;28;20213;-52
2021/06/04 03:28:56;;;;;;;6.50;3.22;;;18.50;74.30;;;;;;5025921;28;20072;-56
2021/06/04 03:31:24;;;;;;;7.43;3.15;;;18.50;74.70;;;;;;5026367;28;20248;-54
2021/06/04 03:33:51;;;;;;;3.90;3.50;;;18.50;75.10;;;;;;5026262;28;20394;-53
2021/06/04 03:36:21;;;;;;;3.40;3.10;;;18.60;75.00;;;;;;5026919;28;20021;-49
2021/06/04 03:38:47;;;;;;;4.43;4.03;;;18.60;75.00;;;;;;5008532;28;20445;-53
2021/06/04 03:41:16;;;;;;;3.42;3.13;;;18.60;74.30;;;;;;5027800;28;20018;-53
2021/06/04 03:43:42;;;;;;;3.28;2.85;;;18.70;74.60;;;;;;5021921;28;20060;-54
2021/06/04 03:46:07;;;;;;;4.60;3.30;;;18.70;74.60;;;;;;5021568;28;20021;-53
2021/06/04 03:48:34;;;;;;;3.40;2.95;;;18.70;74.70;;;;;;5007949;28;20021;-52
2021/06/04 03:51:08;;;;;;;5.05;4.18;;;18.70;74.30;;;;;;5024577;28;20104;-56
2021/06/04 03:53:34;;;;;;;3.30;3.08;;;18.70;74.00;;;;;;5025618;28;20037;-55
2021/06/04 03:56:00;;;;;;;4.85;3.20;;;18.70;73.90;;;;;;5024929;28;20039;-52
2021/06/04 03:58:26;;;;;;;4.05;3.50;;;18.70;74.00;;;;;;5021835;28;20034;-53
2021/06/04 04:00:56;;;;;;;6.22;3.40;;;18.70;73.90;;;;;;5020406;28;20056;-52
2021/06/04 04:03:24;;;;;;;7.13;3.65;;;18.70;74.10;;;;;;5025601;28;20017;-53
2021/06/04 04:05:50;;;;;;;6.68;3.97;;;18.70;74.50;;;;;;5006253;28;20030;-53
2021/06/04 04:08:18;;;;;;;9.13;3.42;;;18.70;74.60;;;;;;5024286;28;20057;-55
2021/06/04 04:10:44;;;;;;;9.15;3.80;;;18.70;74.80;;;;;;5024678;28;20056;-53
2021/06/04 04:13:14;;;;;;;5.30;3.67;;;18.70;75.10;;;;;;5025404;28;20030;-54
2021/06/04 04:15:40;;;;;;;10.73;4.07;;;18.70;75.90;;;;;;5018964;28;20116;-54
2021/06/04 04:18:06;;;;;;;12.02;4.32;;;18.70;76.80;;;;;;5020781;28;20034;-54
2021/06/04 04:20:38;;;;;;;6.55;4.53;;;18.70;76.90;;;;;;5019066;28;20055;-52
2021/06/04 04:23:06;;;;;;;61.05;13.43;;;18.70;76.10;;;;;;5019675;28;20041;-50
2021/06/04 04:25:35;;;;;;;32.95;8.35;;;18.90;75.50;;;;;;5023564;28;20489;-55
2021/06/04 04:28:01;;;;;;;21.42;6.80;;;19.20;74.50;;;;;;5006099;28;20850;-50
2021/06/04 04:30:27;;;;;;;18.75;7.00;;;19.30;74.10;;;;;;5001608;28;20052;-53
2021/06/04 04:32:53;;;;;;;16.15;5.13;;;19.50;73.90;;;;;;5023632;28;20026;-52
2021/06/04 04:35:25;;;;;;;7.78;4.63;;;19.60;74.00;;;;;;5006329;28;20383;-52
2021/06/04 04:37:50;;;;;;;9.23;4.90;;;19.60;73.80;;;;;;5000209;28;20033;-55
2021/06/04 04:40:18;;;;;;;11.57;4.68;;;19.70;73.60;;;;;;5005164;28;20082;-54
2021/06/04 04:42:44;;;;;;;11.85;5.38;;;19.80;73.30;;;;;;5012335;28;20064;-54
2021/06/04 04:45:13;;;;;;;15.05;4.95;;;19.80;73.70;;;;;;5017751;28;20029;-53
2021/06/04 04:47:39;;;;;;;6.30;4.20;;;19.80;73.90;;;;;;5016868;28;20478;-55
2021/06/04 04:50:06;;;;;;;12.10;4.53;;;19.80;73.60;;;;;;5003952;28;20075;-56
2021/06/04 04:52:32;;;;;;;4.55;3.50;;;19.80;73.60;;;;;;4995344;28;20394;-53
2021/06/04 04:54:57;;;;;;;8.80;4.45;;;19.90;73.50;;;;;;4996106;28;20033;-49
2021/06/04 04:57:25;;;;;;;9.70;5.07;;;19.90;73.60;;;;;;5000374;28;20642;-52
2021/06/04 04:59:51;;;;;;;3.47;3.17;;;20.00;73.60;;;;;;4994895;28;20025;-56
2021/06/04 05:02:17;;;;;;;8.35;4.75;;;20.00;73.50;;;;;;5008972;28;20025;-52
2021/06/04 05:04:43;;;;;;;9.00;6.53;;;20.00;73.60;;;;;;5018012;28;20022;-55
2021/06/04 05:07:09;;;;;;;6.10;5.22;;;20.00;74.20;;;;;;5023388;28;20033;-56
2021/06/04 05:09:34;;;;;;;11.07;5.20;;;19.80;74.90;;;;;;5023942;28;20497;-56
2021/06/04 05:12:01;;;;;;;5.85;5.00;;;19.60;75.50;;;;;;5026632;28;20037;-52
2021/06/04 05:14:26;;;;;;;7.15;5.00;;;19.50;76.20;;;;;;5027449;28;20033;-50
2021/06/04 05:16:52;;;;;;;7.88;6.18;;;19.40;76.60;;;;;;5028167;28;20071;-52
2021/06/04 05:19:18;;;;;;;6.63;5.93;;;19.30;76.70;;;;;;5027381;28;20042;-55
2021/06/04 05:21:43;;;;;;;8.82;6.10;;;19.30;77.00;;;;;;5027911;28;20380;-54
2021/06/04 05:24:09;;;;;;;9.05;5.35;;;19.20;77.50;;;;;;5010726;28;20033;-50
2021/06/04 05:26:36;;;;;;;12.65;5.93;;;19.30;77.50;;;;;;5029406;28;20029;-50
2021/06/04 05:29:02;;;;;;;10.00;6.13;;;19.30;77.80;;;;;;5028487;28;20034;-55
2021/06/04 05:31:28;;;;;;;9.95;6.15;;;19.20;77.50;;;;;;5028740;28;20042;-54
2021/06/04 05:33:54;;;;;;;10.73;6.20;;;19.20;78.10;;;;;;5029664;28;20034;-55
2021/06/04 05:36:32;;;;;;;6.72;5.65;;;19.20;78.20;;;;;;5029076;28;20032;-52
2021/06/04 05:39:10;;;;;;;10.35;6.43;;;19.30;78.30;;;;;;5025734;28;20032;-55
2021/06/04 05:41:36;;;;;;;6.63;5.90;;;19.30;78.30;;;;;;5025172;28;20108;-56
2021/06/04 05:44:03;;;;;;;5.97;4.65;;;19.30;78.40;;;;;;5025652;28;20045;-55
2021/06/04 05:46:28;;;;;;;11.85;4.60;;;19.40;77.60;;;;;;5026003;28;20073;-56
2021/06/04 05:48:54;;;;;;;10.63;6.53;;;19.60;77.10;;;;;;5026731;28;20123;-56
2021/06/04 05:51:25;;;;;;;28.25;9.65;;;19.80;76.80;;;;;;5026152;28;20033;-54
2021/06/04 05:53:51;;;;;;;11.48;6.60;;;19.90;76.60;;;;;;5025468;28;20056;-55
2021/06/04 05:56:18;;;;;;;9.20;6.68;;;20.20;76.40;;;;;;5025821;28;20100;-55
2021/06/04 05:58:45;;;;;;;7.03;6.05;;;20.50;75.70;;;;;;5010692;28;20525;-52
2021/06/04 06:01:25;;;;;;;60.28;12.23;;;20.60;75.50;;;;;;5011378;28;20041;-53
2021/06/04 06:03:51;;;;;;;27.15;7.35;;;20.60;74.90;;;;;;5021884;28;20024;-55
2021/06/04 06:06:17;;;;;;;28.15;6.95;;;20.60;74.80;;;;;;5025137;28;20037;-53
2021/06/04 06:08:43;;;;;;;20.05;7.03;;;20.90;74.30;;;;;;5021529;28;20443;-54
2021/06/04 06:11:11;;;;;;;11.80;5.85;;;21.20;73.50;;;;;;5005860;28;20036;-54
2021/06/04 06:13:37;;;;;;;15.00;5.45;;;21.60;73.00;;;;;;5024319;28;20500;-52
2021/06/04 06:16:03;;;;;;;23.42;7.22;;;21.80;72.20;;;;;;5026037;28;20037;-51
2021/06/04 06:18:29;;;;;;;16.52;6.93;;;22.10;71.80;;;;;;5036991;23;20132;-55
2021/06/04 06:20:55;;;;;;;11.82;5.55;;;22.20;71.10;;;;;;5027379;28;20140;-56
2021/06/04 06:23:25;;;;;;;8.43;4.60;;;22.30;70.80;;;;;;5028384;28;20052;-53
2021/06/04 06:25:55;;;;;;;11.13;5.63;;;22.50;69.80;;;;;;5025345;28;20033;-56
2021/06/04 06:28:25;;;;;;;10.63;5.63;;;22.60;69.40;;;;;;5012604;28;20026;-56
2021/06/04 06:30:50;;;;;;;21.08;6.93;;;22.60;69.30;;;;;;5011925;28;20032;-55
2021/06/04 06:33:16;;;;;;;12.57;5.63;;;22.70;68.70;;;;;;5011444;28;20026;-56
2021/06/04 06:35:46;;;;;;;15.30;5.75;;;22.80;68.70;;;;;;5010400;28;20034;-55
2021/06/04 06:38:12;;;;;;;15.27;6.07;;;22.90;68.40;;;;;;5007569;28;20079;-54
2021/06/04 06:40:39;;;;;;;5.72;5.15;;;23.10;68.00;;;;;;5010753;28;20080;-55
2021/06/04 06:43:05;;;;;;;7.68;4.88;;;23.20;68.10;;;;;;5014527;28;20044;-56
2021/06/04 06:45:31;;;;;;;22.05;7.90;;;23.50;67.30;;;;;;5010278;28;20064;-54
2021/06/04 06:47:56;;;;;;;9.43;6.30;;;23.50;66.80;;;;;;5010079;28;20577;-56
2021/06/04 06:50:25;;;;;;;9.35;5.32;;;23.50;66.20;;;;;;5008236;28;20034;-54
2021/06/04 06:52:51;;;;;;;12.27;6.22;;;23.50;66.10;;;;;;5013270;28;20021;-56
2021/06/04 06:55:17;;;;;;;10.32;6.50;;;23.40;65.60;;;;;;5012187;28;20053;-56
2021/06/04 06:57:44;;;;;;;19.70;7.55;;;23.40;66.10;;;;;;5014003;28;20060;-55
2021/06/04 07:00:17;;;;;;;29.48;9.00;;;23.40;65.90;;;;;;5017941;28;20105;-56
2021/06/04 07:02:43;;;;;;;93.82;14.25;;;23.40;66.20;;;;;;5023530;28;20146;-56
2021/06/04 07:05:10;;;;;;;18.25;7.32;;;23.40;66.40;;;;;;5018811;28;20414;-57
2021/06/04 07:07:39;;;;;;;13.98;7.22;;;23.40;66.70;;;;;;5021187;28;20037;-56
2021/06/04 07:10:07;;;;;;;16.92;8.07;;;23.50;65.80;;;;;;5015033;28;20033;-56
2021/06/04 07:12:33;;;;;;;26.05;10.27;;;23.50;66.00;;;;;;5011228;28;20061;-57
2021/06/04 07:14:59;;;;;;;13.32;7.80;;;23.30;66.40;;;;;;5010306;28;20067;-57
2021/06/04 07:17:26;;;;;;;26.77;9.02;;;23.30;66.70;;;;;;5010272;28;20104;-56
2021/06/04 07:19:52;;;;;;;37.38;9.13;;;23.30;66.80;;;;;;5012292;28;20117;-57
2021/06/04 07:22:17;;;;;;;13.65;7.35;;;23.20;67.10;;;;;;5011490;28;20124;-57
2021/06/04 07:24:43;;;;;;;9.95;8.90;;;23.20;67.20;;;;;;5007362;28;20022;-56
2021/06/04 07:27:09;;;;;;;13.15;8.73;;;23.20;67.40;;;;;;5012989;28;20034;-57
2021/06/04 07:29:34;;;;;;;18.75;8.30;;;23.20;67.50;;;;;;5011284;28;20459;-58
2021/06/04 07:32:00;;;;;;;11.43;8.30;;;23.20;67.70;;;;;;5012835;28;20571;-56
2021/06/04 07:34:28;;;;;;;19.58;8.98;;;23.20;67.60;;;;;;5021213;28;20034;-57
2021/06/04 07:36:55;;;;;;;12.48;8.95;;;23.40;67.70;;;;;;5008794;28;20022;-57
2021/06/04 07:39:26;;;;;;;33.30;10.43;;;23.40;67.50;;;;;;5014671;28;20120;-56
2021/06/04 07:41:52;;;;;;;10.45;7.95;;;23.40;67.50;;;;;;5007201;28;20104;-56
2021/06/04 07:44:21;;;;;;;17.85;10.80;;;23.20;67.70;;;;;;5009343;28;20057;-56
2021/06/04 07:46:47;;;;;;;12.77;9.77;;;23.30;68.20;;;;;;5009081;28;20497;-56
2021/06/04 07:49:13;;;;;;;8.10;6.18;;;23.30;68.20;;;;;;5010901;28;20022;-56
2021/06/04 07:51:45;;;;;;;7.85;6.28;;;23.30;67.90;;;;;;5012792;28;20033;-55
2021/06/04 07:54:11;;;;;;;10.15;6.53;;;23.20;67.60;;;;;;5018830;28;20140;-56
2021/06/04 07:56:38;;;;;;;12.15;6.50;;;23.10;68.20;;;;;;5010936;28;20394;-56
2021/06/04 07:59:04;;;;;;;13.00;7.38;;;23.30;68.30;;;;;;5003049;28;20037;-54
2021/06/04 08:01:30;;;;;;;15.90;6.45;;;23.50;68.00;;;;;;5024126;28;20029;-56
2021/06/04 08:03:57;;;;;;;6.38;5.72;;;23.90;67.30;;;;;;5018339;28;20148;-56
2021/06/04 08:06:22;;;;;;;10.68;7.45;;;23.90;66.80;;;;;;5006800;28;20021;-56
2021/06/04 08:08:53;;;;;;;10.25;6.78;;;23.90;67.00;;;;;;5012890;28;20497;-56
2021/06/04 08:11:28;;;;;;;7.63;6.78;;;24.00;65.90;;;;;;5014427;28;20079;-55
2021/06/04 08:13:56;;;;;;;7.53;6.78;;;23.80;65.80;;;;;;5016008;28;20470;-56
2021/06/04 08:16:22;;;;;;;10.27;7.22;;;23.60;66.30;;;;;;5013390;28;20041;-55
2021/06/04 08:18:48;;;;;;;9.20;6.70;;;23.50;66.70;;;;;;5013019;28;20091;-56
2021/06/04 08:21:19;;;;;;;7.28;6.65;;;23.50;67.20;;;;;;5006604;28;20029;-56
2021/06/04 08:23:46;;;;;;;9.80;6.15;;;23.60;67.00;;;;;;5006878;28;20021;-56
2021/06/04 08:26:17;;;;;;;6.20;5.57;;;23.70;67.00;;;;;;5009687;28;20022;-56
2021/06/04 08:28:43;;;;;;;9.95;6.07;;;24.00;66.70;;;;;;5019871;28;20026;-56
2021/06/04 08:31:09;;;;;;;7.05;6.40;;;24.20;66.50;;;;;;5005900;28;20028;-56
2021/06/04 08:33:41;;;;;;;7.63;4.90;;;24.30;66.40;;;;;;5008222;28;20562;-56
2021/06/04 08:36:12;;;;;;;7.22;6.53;;;24.40;66.30;;;;;;5009908;28;20553;-55
2021/06/04 08:38:40;;;;;;;9.88;5.93;;;24.60;65.80;;;;;;5002625;28;20550;-56
2021/06/04 08:41:31;;;;;;;12.73;6.20;;;24.90;66.50;;;;;;5011284;28;20029;-55
2021/06/04 08:44:15;;;;;;;10.93;6.13;;;25.10;65.00;;;;;;5007818;28;20025;-56
2021/06/04 08:46:51;;;;;;;10.10;6.50;;;25.50;64.40;;;;;;5005628;28;20593;-56
2021/06/04 08:49:31;;;;;;;5.22;4.70;;;25.40;64.20;;;;;;5017504;28;20090;-56
2021/06/04 08:52:14;;;;;;;9.35;6.55;;;25.50;64.10;;;;;;5006977;28;20026;-56
2021/06/04 08:54:50;;;;;;;8.88;6.63;;;25.40;61.40;;;;;;5006816;28;20032;-55
2021/06/04 08:57:49;;;;;;;10.55;5.60;;;25.10;61.70;;;;;;5007166;28;20026;-52
2021/06/04 09:00:26;;;;;;;7.22;6.00;;;25.10;63.20;;;;;;5008365;28;20014;-55
2021/06/04 09:03:21;;;;;;;6.90;6.20;;;25.40;61.90;;;;;;5016214;28;20095;-54
2021/06/04 09:05:51;;;;;;;7.18;5.32;;;25.40;61.90;;;;;;5003088;28;20302;-55
2021/06/04 09:08:26;;;;;;;9.35;4.47;;;25.40;61.50;;;;;;5003807;28;20054;-54
2021/06/04 09:10:57;;;;;;;27.13;5.38;;;25.50;62.10;;;;;;5015967;28;20950;-54
2021/06/04 09:13:30;;;;;;;7.70;5.90;;;25.90;61.50;;;;;;5014926;28;20026;-54
2021/06/04 09:16:30;;;;;;;11.75;6.88;;;26.10;60.70;;;;;;5017501;28;20025;-54
2021/06/04 09:19:06;;;;;;;8.70;5.32;;;26.10;60.50;;;;;;5011284;28;20610;-54
2021/06/04 09:21:34;;;;;;;7.43;5.53;;;26.10;60.90;;;;;;5018176;28;20080;-54
2021/06/04 09:24:04;;;;;;;8.57;5.60;;;26.30;60.80;;;;;;5009428;28;20030;-56
2021/06/04 09:26:30;;;;;;;8.52;5.65;;;26.20;60.20;;;;;;5003363;28;20029;-56
2021/06/04 09:29:02;;;;;;;12.02;7.13;;;26.20;60.70;;;;;;5009289;28;20030;-56
2021/06/04 09:31:48;;;;;;;10.35;6.70;;;26.30;60.20;;;;;;5015147;28;20049;-56
2021/06/04 09:34:33;;;;;;;7.90;6.28;;;26.30;60.20;;;;;;5012892;28;20022;-56
2021/06/04 09:37:04;;;;;;;10.13;6.25;;;26.30;60.20;;;;;;5007079;28;20486;-56
2021/06/04 09:39:39;;;;;;;10.90;6.45;;;26.20;60.20;;;;;;5011389;28;20030;-56
2021/06/04 09:42:20;;;;;;;10.80;7.55;;;26.20;59.70;;;;;;5016189;28;20405;-56
2021/06/04 09:45:00;;;;;;;9.32;5.57;;;26.10;59.10;;;;;;5016165;28;20394;-57
2021/06/04 09:47:37;;;;;;;9.00;7.47;;;26.00;59.50;;;;;;5015941;28;20030;-56
2021/06/04 09:50:30;;;;;;;9.32;7.22;;;25.90;58.00;;;;;;5011175;28;20038;-57
2021/06/04 09:53:00;;;;;;;7.45;6.68;;;25.70;58.10;;;;;;5016109;28;20065;-55
2021/06/04 09:55:30;;;;;;;8.07;5.82;;;25.60;57.40;;;;;;5009104;28;20052;-56
2021/06/04 09:58:04;;;;;;;7.65;6.28;;;25.50;58.10;;;;;;5015297;28;20053;-56
2021/06/04 10:00:47;;;;;;;9.70;5.80;;;25.50;57.00;;;;;;5010018;28;20029;-56
2021/06/04 10:03:26;;;;;;;8.13;6.40;;;25.70;57.40;;;;;;5021067;28;20366;-55
2021/06/04 10:06:07;;;;;;;11.93;5.60;;;25.70;57.80;;;;;;5008651;28;20037;-56
2021/06/04 10:08:50;;;;;;;6.90;5.30;;;25.80;57.80;;;;;;5009624;28;20042;-56
2021/06/04 10:11:24;;;;;;;10.02;8.23;;;25.90;58.00;;;;;;5014624;28;20065;-55
2021/06/04 10:14:14;;;;;;;7.95;6.82;;;25.90;57.60;;;;;;5022398;28;20033;-57
2021/06/04 10:19:44;;;;;;;7.95;5.95;;;26.00;57.90;;;;;;5013260;28;20081;-58
2021/06/04 10:22:33;;;;;;;8.68;6.55;;;26.30;58.40;;;;;;5018298;28;20103;-55
2021/06/04 10:25:01;;;;;;;8.02;7.22;;;26.70;57.30;;;;;;5012138;28;20120;-58
2021/06/04 10:27:27;;;;;;;7.47;5.82;;;26.60;55.50;;;;;;5014011;28;20478;-58
2021/06/04 10:30:10;;;;;;;7.65;6.05;;;26.50;56.00;;;;;;5015726;28;20032;-57
2021/06/04 10:32:49;;;;;;;12.00;7.15;;;26.40;55.00;;;;;;5010757;28;20049;-57
2021/06/04 10:35:46;;;;;;;9.60;6.85;;;26.50;56.00;;;;;;5013689;28;20061;-57
2021/06/04 10:38:15;;;;;;;8.55;7.13;;;26.60;55.50;;;;;;5015310;28;20056;-57
2021/06/04 10:40:54;;;;;;;7.50;6.85;;;26.70;55.00;;;;;;5013355;28;20026;-58
2021/06/04 10:43:44;;;;;;;7.65;6.60;;;26.60;55.10;;;;;;5010735;28;20118;-57
2021/06/04 10:46:23;;;;;;;8.77;7.85;;;26.50;55.40;;;;;;5013184;28;20113;-57
2021/06/04 10:49:07;;;;;;;8.70;6.60;;;26.30;55.20;;;;;;5010324;28;20843;-58
2021/06/04 10:51:50;;;;;;;7.03;5.97;;;26.30;54.90;;;;;;5008976;28;20547;-57
2021/06/04 10:54:26;;;;;;;8.10;7.25;;;26.30;54.60;;;;;;5016705;28;20041;-56
2021/06/04 10:57:10;;;;;;;7.25;6.55;;;26.50;55.10;;;;;;5009323;28;20032;-58
2021/06/04 10:59:45;;;;;;;8.18;7.20;;;26.50;55.70;;;;;;5007645;28;20101;-57
2021/06/04 11:02:47;;;;;;;8.25;6.80;;;26.60;55.80;;;;;;5013793;28;20117;-57
2021/06/04 11:05:51;;;;;;;7.40;6.68;;;26.60;54.00;;;;;;4995643;28;20030;-58
2021/06/04 11:08:19;;;;;;;10.07;7.30;;;26.50;54.70;;;;;;5021447;28;20682;-57
2021/06/04 11:11:22;;;;;;;7.32;5.57;;;26.40;54.60;;;;;;5023942;28;20026;-57
2021/06/04 11:14:24;;;;;;;6.90;5.93;;;26.40;55.20;;;;;;5012504;28;20561;-57
2021/06/04 11:17:16;;;;;;;5.40;4.63;;;26.60;55.30;;;;;;5012656;28;20410;-56
2021/06/04 11:20:00;;;;;;;7.07;5.72;;;26.90;56.20;;;;;;5012395;28;20052;-56
2021/06/04 11:22:31;;;;;;;7.20;6.45;;;27.60;55.20;;;;;;5016078;28;20030;-56
2021/06/04 11:25:06;;;;;;;9.80;6.68;;;28.00;54.70;;;;;;5018790;28;20034;-56
2021/06/04 11:27:39;;;;;;;6.87;5.07;;;28.00;53.60;;;;;;5012965;28;20041;-56
2021/06/04 11:30:13;;;;;;;5.38;4.88;;;27.70;52.60;;;;;;5010037;28;20110;-56
2021/06/04 11:32:59;;;;;;;7.75;6.05;;;27.60;51.70;;;;;;5015010;28;20113;-55
2021/06/04 11:35:29;;;;;;;7.60;5.75;;;27.30;52.50;;;;;;5014711;28;20037;-56
2021/06/04 11:38:07;;;;;;;7.93;5.63;;;27.20;52.60;;;;;;5013563;28;20433;-55
2021/06/04 11:40:46;;;;;;;7.03;6.32;;;27.30;53.10;;;;;;5014636;28;20482;-55
2021/06/04 11:43:14;;;;;;;7.28;5.60;;;27.30;53.50;;;;;;5017049;28;20030;-56
2021/06/04 11:45:44;;;;;;;6.68;6.18;;;27.40;53.70;;;;;;5025180;28;20036;-56
2021/06/04 11:48:38;;;;;;;6.68;6.18;;;27.40;52.80;;;;;;5014550;28;20049;-56
2021/06/04 11:51:19;;;;;;;6.38;5.88;;;27.30;53.60;;;;;;5015427;28;20033;-55
2021/06/04 11:53:45;;;;;;;6.75;6.15;;;27.20;53.30;;;;;;5013815;28;20030;-56
2021/06/04 11:56:49;;;;;;;5.80;5.13;;;27.30;53.00;;;;;;5016162;28;20040;-56
2021/06/04 11:59:46;;;;;;;11.77;5.03;;;27.40;52.10;;;;;;5015456;28;20026;-56
2021/06/04 12:02:37;;;;;;;4.88;4.47;;;27.40;50.60;;;;;;5013574;28;20057;-54
2021/06/04 12:05:08;;;;;;;4.57;4.10;;;27.50;50.30;;;;;;5014436;28;20088;-55
2021/06/04 12:07:43;;;;;;;4.93;4.53;;;27.40;50.60;;;;;;5016529;28;20026;-56
2021/06/04 12:10:13;;;;;;;5.15;4.65;;;27.40;50.90;;;;;;5012075;28;20026;-56
2021/06/04 12:12:52;;;;;;;5.57;5.07;;;27.40;51.50;;;;;;5013092;28;20034;-56
2021/06/04 12:15:21;;;;;;;5.55;5.05;;;27.50;51.80;;;;;;5012615;28;20029;-56
2021/06/04 12:17:46;;;;;;;5.90;5.30;;;27.70;52.00;;;;;;5012508;28;20032;-56
2021/06/04 12:20:26;;;;;;;5.30;4.78;;;28.00;51.70;;;;;;5008723;28;20030;-56
2021/06/04 12:22:58;;;;;;;5.57;5.07;;;28.10;51.80;;;;;;5013497;28;20035;-57
2021/06/04 12:25:58;;;;;;;6.13;5.30;;;28.30;51.00;;;;;;5013683;28;20152;-57
2021/06/04 12:28:35;;;;;;;4.95;4.55;;;28.50;50.80;;;;;;5014880;28;20513;-58
2021/06/04 12:31:30;;;;;;;4.85;4.45;;;28.60;50.40;;;;;;5012850;28;20060;-58
2021/06/04 12:33:58;;;;;;;6.10;4.28;;;28.50;50.50;;;;;;5005616;28;20095;-57
2021/06/04 12:36:29;;;;;;;4.80;4.35;;;28.60;49.00;;;;;;5006850;28;20107;-56
2021/06/04 12:39:20;;;;;;;5.45;4.97;;;28.50;48.60;;;;;;5011288;28;20025;-58
2021/06/04 12:41:47;;;;;;;4.55;4.15;;;28.20;49.20;;;;;;5011477;28;20032;-56
2021/06/04 12:44:13;;;;;;;7.75;5.35;;;28.00;49.50;;;;;;5006722;28;20030;-58
2021/06/04 12:46:39;;;;;;;9.50;7.82;;;28.10;49.20;;;;;;5010147;28;20014;-58
2021/06/04 12:49:12;;;;;;;100.35;82.07;;;28.10;49.30;;;;;;5003711;28;20029;-58
2021/06/04 12:51:44;;;;;;;12.95;10.73;;;28.10;49.10;;;;;;5006709;28;20459;-58
2021/06/04 12:54:12;;;;;;;7.38;6.22;;;28.30;49.60;;;;;;5008130;28;20026;-55
2021/06/04 12:56:47;;;;;;;11.20;5.75;;;28.30;49.20;;;;;;5003467;28;20037;-58
2021/06/04 12:59:16;;;;;;;9.75;5.43;;;28.20;49.50;;;;;;5008751;28;20092;-57
2021/06/04 13:02:07;;;;;;;5.45;4.70;;;28.30;49.30;;;;;;5012912;28;20026;-58
2021/06/04 13:04:40;;;;;;;4.72;4.13;;;28.30;49.00;;;;;;5008025;28;20022;-58
2021/06/04 13:07:28;;;;;;;4.07;3.78;;;28.40;48.00;;;;;;5010735;28;20030;-57
2021/06/04 13:10:07;;;;;;;5.32;4.82;;;28.40;48.40;;;;;;5005199;28;20040;-58
2021/06/04 13:12:34;;;;;;;11.43;9.93;;;28.50;47.80;;;;;;5012010;28;20510;-58
2021/06/04 13:15:14;;;;;;;10.82;7.65;;;28.60;46.90;;;;;;5005018;28;20034;-57
2021/06/04 13:17:39;;;;;;;6.68;4.93;;;28.70;47.30;;;;;;5016075;28;20356;-58